Time;durP1;ratioP1;P1;durP2;ratioP2;P2;SDS_P1;SDS_P2;PMS_P1;PMS_P2;Temp;Humidity;BMP_temperature;BMP_pressure;BME280_temperature;BME280_humidity;BME280_pressure;Samples;Min_cycle;Max_cycle;Signal;HPM_P1;HPM_P2
2023/07/26 00:02:28;;;;;;;19.95;17.92;;;14.20;99.90;;;14.79;100.00;97488.47;10380873;28;20233;-81
2023/07/26 00:07:31;;;;;;;21.35;19.27;;;14.30;99.90;;;14.74;100.00;97496.03;10382604;28;20231;-82
2023/07/26 00:12:34;;;;;;;21.92;19.63;;;14.20;99.90;;;14.76;100.00;97498.66;10377162;28;20253;-79
2023/07/26 00:17:39;;;;;;;23.48;20.98;;;14.20;99.90;;;14.85;100.00;97505.00;10384380;28;20828;-80
2023/07/26 00:22:42;;;;;;;22.52;20.08;;;14.30;99.90;;;14.84;100.00;97500.66;10383416;28;20230;-81
2023/07/26 00:27:45;;;;;;;20.58;18.40;;;14.30;99.90;;;14.86;100.00;97501.59;10384592;28;22337;-80
2023/07/26 00:32:50;;;;;;;20.05;18.05;;;14.30;99.90;;;14.89;100.00;97499.97;10386706;28;20214;-80
2023/07/26 00:37:54;;;;;;;23.27;20.92;;;14.30;99.90;;;14.86;100.00;97499.03;10384155;28;20249;-78
2023/07/26 00:42:57;;;;;;;21.63;19.35;;;14.30;99.90;;;14.86;100.00;97509.31;10385686;28;20237;-79
2023/07/26 00:48:02;;;;;;;22.90;20.60;;;14.30;99.90;;;14.98;100.00;97500.28;10385695;28;20399;-81
2023/07/26 00:53:06;;;;;;;21.40;19.20;;;14.30;99.90;;;14.96;100.00;97512.19;10380189;28;20237;-79
2023/07/26 00:58:10;;;;;;;22.75;20.35;;;14.30;99.90;;;14.86;100.00;97511.91;10374129;28;20230;-81
2023/07/26 01:03:15;;;;;;;24.02;21.55;;;14.30;99.90;;;14.87;100.00;97507.63;10378876;28;20237;-81
2023/07/26 01:08:34;;;;;;;24.63;22.10;;;14.30;99.90;;;14.87;100.00;97520.47;10372349;28;20253;-80
2023/07/26 01:13:47;;;;;;;24.00;21.70;;;14.30;99.90;;;14.99;100.00;97527.75;10373918;28;20230;-80
2023/07/26 01:18:52;;;;;;;25.30;22.90;;;14.30;99.90;;;14.84;100.00;97513.53;10373277;28;20593;-81
2023/07/26 01:23:57;;;;;;;25.20;22.60;;;14.30;99.90;;;14.90;100.00;97528.31;10370982;28;20334;-81
2023/07/26 01:29:00;;;;;;;27.77;24.67;;;14.30;99.90;;;14.97;100.00;97524.28;10370080;28;20310;-81
2023/07/26 01:34:06;;;;;;;25.30;22.80;;;14.40;99.90;;;15.05;100.00;97534.00;10366072;28;20260;-81
2023/07/26 01:39:12;;;;;;;27.38;24.70;;;14.40;99.90;;;14.97;100.00;97539.72;10371166;28;20222;-79
2023/07/26 01:44:16;;;;;;;27.30;24.48;;;14.40;99.90;;;14.96;100.00;97532.78;10370519;28;20230;-80
2023/07/26 01:49:21;;;;;;;26.70;24.00;;;14.40;99.90;;;14.82;100.00;97530.63;10368126;28;20249;-79
2023/07/26 01:54:25;;;;;;;28.45;25.58;;;14.30;99.90;;;14.80;100.00;97537.41;10359616;28;20783;-79
2023/07/26 01:59:29;;;;;;;29.60;26.40;;;14.20;99.90;;;14.69;100.00;97541.31;10360583;28;20254;-80
2023/07/26 02:04:32;;;;;;;28.00;25.00;;;14.10;99.90;;;14.74;100.00;97542.34;10367819;28;20695;-80
2023/07/26 02:09:37;;;;;;;25.52;22.92;;;14.20;99.90;;;14.81;100.00;97559.75;10368529;28;21203;-79
2023/07/26 02:14:40;;;;;;;30.15;26.98;;;14.20;99.90;;;14.81;100.00;97559.75;10362242;28;20245;-78
2023/07/26 02:19:43;;;;;;;28.75;25.77;;;14.30;99.90;;;14.77;100.00;97562.16;10370174;28;20222;-80
2023/07/26 02:24:48;;;;;;;27.25;24.48;;;14.20;99.90;;;14.73;100.00;97560.28;10368934;28;20229;-79
2023/07/26 02:29:51;;;;;;;27.75;24.27;;;14.20;99.90;;;14.64;100.00;97560.84;10359861;28;20227;-79
2023/07/26 02:34:54;;;;;;;24.73;22.33;;;14.00;99.90;;;14.66;100.00;97566.06;10364141;28;20222;-80
2023/07/26 02:40:01;;;;;;;26.20;23.42;;;14.10;99.90;;;14.64;100.00;97563.41;10370845;28;20234;-80
2023/07/26 02:45:06;;;;;;;26.77;23.98;;;14.00;99.90;;;14.60;100.00;97574.41;10380268;28;20313;-79
2023/07/26 02:50:10;;;;;;;27.15;24.33;;;14.00;99.90;;;14.57;100.00;97576.88;10385217;28;20753;-77
2023/07/26 02:55:14;;;;;;;26.98;23.85;;;14.00;99.90;;;14.53;100.00;97582.72;10389385;28;20332;-79
2023/07/26 03:00:18;;;;;;;26.73;23.85;;;13.90;99.90;;;14.38;100.00;97581.28;10386375;28;20265;-80
2023/07/26 03:05:21;;;;;;;23.58;21.10;;;13.80;99.90;;;14.41;100.00;97591.69;10370624;28;20616;-79
2023/07/26 03:10:25;;;;;;;26.55;23.73;;;13.90;99.90;;;14.47;100.00;97592.75;10390784;28;20230;-78
2023/07/26 03:15:30;;;;;;;27.38;24.48;;;13.90;99.90;;;14.51;100.00;97603.22;10384996;28;20234;-81
2023/07/26 03:20:33;;;;;;;27.55;24.48;;;14.00;99.90;;;14.50;100.00;97604.00;10386071;28;20298;-81
2023/07/26 03:25:37;;;;;;;23.27;20.83;;;13.90;99.90;;;14.51;100.00;97612.63;10389888;28;20254;-80
2023/07/26 03:30:40;;;;;;;20.77;18.77;;;13.90;99.90;;;14.43;100.00;97618.34;10382207;28;20323;-80
2023/07/26 03:35:44;;;;;;;21.35;19.25;;;13.70;99.90;;;14.41;100.00;97621.69;10385577;28;20238;-80
2023/07/26 03:40:48;;;;;;;21.60;18.17;;;13.70;99.90;;;14.35;100.00;97624.88;10390329;28;20227;-81
2023/07/26 03:45:51;;;;;;;19.83;17.88;;;13.60;99.90;;;14.15;100.00;97636.97;10392543;28;20233;-80
2023/07/26 03:50:55;;;;;;;20.83;18.63;;;13.50;99.90;;;14.13;100.00;97637.72;10385427;28;20233;-80
2023/07/26 03:55:59;;;;;;;20.20;18.08;;;13.50;99.90;;;14.14;100.00;97634.34;10385389;28;20306;-81
2023/07/26 04:01:02;;;;;;;21.05;19.02;;;13.50;99.90;;;14.05;100.00;97649.38;10377988;28;20833;-82
2023/07/26 04:06:06;;;;;;;18.48;16.60;;;13.40;99.90;;;14.01;100.00;97647.53;10382319;28;20261;-81
2023/07/26 04:11:12;;;;;;;19.45;17.58;;;13.40;99.90;;;14.02;100.00;97655.31;10386613;28;20265;-80
2023/07/26 04:16:18;;;;;;;18.70;16.80;;;13.40;99.90;;;14.03;100.00;97658.75;10384122;28;20227;-80
2023/07/26 04:21:21;;;;;;;19.58;17.38;;;13.40;99.90;;;14.04;100.00;97663.06;10376579;28;20620;-80
2023/07/26 04:26:25;;;;;;;20.80;18.80;;;13.50;99.90;;;14.13;100.00;97663.44;10377331;28;20654;-79
2023/07/26 04:31:29;;;;;;;19.83;17.83;;;13.50;99.90;;;14.16;100.00;97663.53;10378266;28;20233;-80
2023/07/26 04:36:32;;;;;;;19.20;17.38;;;13.60;99.90;;;14.25;100.00;97658.78;10369991;28;20250;-81
2023/07/26 04:41:37;;;;;;;20.00;17.77;;;13.60;99.90;;;14.22;100.00;97658.63;10371223;28;20229;-82
2023/07/26 04:46:40;;;;;;;19.13;16.98;;;13.60;99.90;;;14.12;100.00;97669.41;10368540;28;20237;-80
2023/07/26 04:51:43;;;;;;;18.33;16.52;;;13.50;99.90;;;14.20;100.00;97678.28;10373374;28;20671;-80
2023/07/26 04:56:48;;;;;;;18.35;16.55;;;13.60;99.90;;;14.43;100.00;97682.63;10369216;28;20236;-81
2023/07/26 05:01:51;;;;;;;17.90;16.20;;;13.60;99.90;;;14.54;100.00;97677.09;10369871;28;20230;-81
2023/07/26 05:06:54;;;;;;;17.50;15.82;;;13.70;99.90;;;14.49;100.00;97688.84;10374988;28;20236;-79
2023/07/26 05:11:59;;;;;;;19.23;17.25;;;13.80;99.90;;;14.74;100.00;97686.44;10372387;28;20242;-80
2023/07/26 05:17:02;;;;;;;15.43;13.88;;;14.00;99.90;;;15.14;100.00;97693.06;10374332;28;20284;-79
2023/07/26 05:22:06;;;;;;;13.30;12.20;;;14.30;99.90;;;15.58;100.00;97696.31;10369016;28;20229;-79
2023/07/26 05:27:14;;;;;;;11.80;10.80;;;14.70;99.90;;;15.79;100.00;97700.50;10384153;28;20300;-82
2023/07/26 05:32:17;;;;;;;10.63;9.63;;;14.80;99.90;;;15.87;100.00;97704.22;10381764;28;20244;-80
2023/07/26 05:37:20;;;;;;;10.65;9.65;;;15.10;99.90;;;16.03;100.00;97708.19;10379055;28;20228;-80
2023/07/26 05:42:28;;;;;;;9.82;8.98;;;15.10;99.90;;;15.87;100.00;97704.22;10372932;28;20229;-79
2023/07/26 05:47:38;;;;;;;10.10;9.00;;;14.90;99.90;;;15.89;100.00;97710.28;10374759;28;20222;-80
2023/07/26 05:52:52;;;;;;;9.68;8.77;;;14.80;99.90;;;15.77;100.00;97714.22;10381783;28;20253;-79
2023/07/26 05:57:59;;;;;;;8.98;8.18;;;14.80;99.90;;;15.74;100.00;97708.97;10386834;28;20237;-80
2023/07/26 06:03:02;;;;;;;9.55;8.75;;;14.80;99.90;;;15.74;100.00;97716.69;10389849;28;20233;-80
2023/07/26 06:08:06;;;;;;;9.57;8.65;;;14.90;99.90;;;15.77;100.00;97723.66;10376307;28;20261;-80
2023/07/26 06:13:12;;;;;;;9.00;8.27;;;14.90;99.90;;;15.81;100.00;97729.78;10382420;28;20794;-81
2023/07/26 06:18:15;;;;;;;9.25;8.20;;;14.80;99.90;;;15.76;100.00;97727.91;10378425;28;20230;-81
2023/07/26 06:23:19;;;;;;;8.65;8.05;;;14.90;99.90;;;15.54;100.00;97725.41;10381202;28;20231;-82
2023/07/26 06:28:23;;;;;;;8.88;8.18;;;14.80;99.90;;;15.73;100.00;97722.66;10380108;28;20309;-81
2023/07/26 06:33:27;;;;;;;8.75;8.05;;;14.80;99.90;;;15.70;100.00;97716.50;10380048;28;20232;-80
2023/07/26 06:38:30;;;;;;;9.55;8.65;;;14.90;99.90;;;15.84;100.00;97732.47;10379522;28;20295;-79
2023/07/26 06:43:34;;;;;;;8.40;7.60;;;14.90;99.90;;;16.03;100.00;97737.41;10381700;28;20232;-78
2023/07/26 06:48:38;;;;;;;8.30;7.07;;;15.00;99.90;;;15.99;100.00;97748.44;10385642;28;20225;-81
2023/07/26 06:53:41;;;;;;;8.85;8.15;;;15.00;99.90;;;16.04;100.00;97738.28;10392518;28;20253;-82
2023/07/26 06:58:46;;;;;;;8.18;7.50;;;15.10;99.90;;;15.99;100.00;97740.69;10379044;28;20223;-79
2023/07/26 07:03:49;;;;;;;7.57;6.95;;;15.00;99.90;;;15.97;99.00;97737.22;10384067;28;20285;-78
2023/07/26 07:09:13;;;;;;;7.93;7.22;;;15.10;99.90;;;16.19;99.02;97742.25;10391182;28;20214;-79
2023/07/26 07:14:18;;;;;;;7.93;7.05;;;15.30;99.90;;;16.49;100.00;97744.06;10390967;28;20305;-79
2023/07/26 07:19:22;;;;;;;6.88;6.38;;;15.50;99.90;;;16.41;95.99;97753.28;10381544;28;20214;-79
2023/07/26 07:24:25;;;;;;;6.70;6.20;;;15.60;99.90;;;16.29;98.11;97756.34;10370694;28;20227;-79
2023/07/26 07:29:30;;;;;;;7.00;6.43;;;15.40;99.90;;;16.31;97.74;97756.38;10384826;28;20320;-79
2023/07/26 07:34:33;;;;;;;7.43;6.93;;;15.30;99.90;;;16.53;98.36;97751.06;10389392;28;20608;-78
2023/07/26 07:39:36;;;;;;;7.13;6.53;;;15.50;99.90;;;16.70;96.94;97751.59;10395288;28;20225;-78
2023/07/26 07:44:41;;;;;;;6.20;5.68;;;15.80;99.90;;;17.03;95.18;97744.06;10392383;28;20714;-79
2023/07/26 07:49:46;;;;;;;6.93;6.32;;;16.20;99.90;;;17.33;94.03;97743.19;10395034;28;20225;-82
2023/07/26 07:54:50;;;;;;;6.78;6.03;;;16.40;99.90;;;17.46;91.21;97741.84;10393781;28;20222;-80
2023/07/26 07:59:54;;;;;;;7.50;6.80;;;16.50;99.90;;;17.26;93.45;97736.13;10374509;28;20706;-78
2023/07/26 08:05:00;;;;;;;7.63;6.90;;;16.20;99.90;;;16.94;98.79;97748.97;10387964;28;20898;-80
2023/07/26 08:10:04;;;;;;;8.70;7.90;;;16.00;99.90;;;16.57;100.00;97752.06;10384423;28;20222;-79
2023/07/26 08:15:09;;;;;;;11.60;9.02;;;15.70;99.90;;;16.28;100.00;97754.59;10384500;28;20255;-79
2023/07/26 08:20:13;;;;;;;9.23;8.32;;;15.50;99.90;;;15.88;100.00;97758.41;10382937;28;20226;-78
2023/07/26 08:25:16;;;;;;;10.38;9.32;;;15.20;99.90;;;15.44;100.00;97764.50;10384992;28;20222;-79
2023/07/26 08:30:21;;;;;;;10.68;9.73;;;14.90;99.90;;;15.24;100.00;97764.66;10372835;28;20226;-79
2023/07/26 08:35:25;;;;;;;9.20;8.50;;;14.70;99.90;;;15.45;100.00;97767.16;10385539;28;20283;-81
2023/07/26 08:40:28;;;;;;;8.20;7.60;;;14.90;99.90;;;15.61;100.00;97773.72;10390259;28;20249;-81
2023/07/26 08:45:34;;;;;;;7.90;7.30;;;15.20;99.90;;;16.14;100.00;97768.72;10379057;28;20233;-81
2023/07/26 08:50:40;;;;;;;5.80;5.40;;;15.60;99.90;;;16.75;100.00;97777.56;10375823;28;20660;-80
2023/07/26 08:55:43;;;;;;;6.00;5.40;;;16.20;99.90;;;16.92;100.00;97776.44;10386188;28;20230;-79
2023/07/26 09:00:48;;;;;;;5.80;5.20;;;16.40;99.90;;;17.06;100.00;97780.31;10376934;28;20218;-80
2023/07/26 09:06:03;;;;;;;5.72;5.22;;;16.50;99.90;;;16.61;99.17;97779.72;10375224;28;20234;-79
2023/07/26 09:11:23;;;;;;;6.20;5.57;;;16.00;99.90;;;16.17;100.00;97777.44;10374748;28;20390;-79
2023/07/26 09:16:30;;;;;;;7.53;5.97;;;15.60;99.90;;;15.99;100.00;97777.69;10371995;28;20222;-79
2023/07/26 09:21:35;;;;;;;7.03;6.53;;;15.40;99.90;;;15.90;100.00;97776.47;10370776;28;20230;-80
2023/07/26 09:26:41;;;;;;;6.32;5.82;;;15.30;99.90;;;16.11;100.00;97784.06;10381860;28;20230;-80
2023/07/26 09:31:46;;;;;;;6.13;5.63;;;15.40;99.90;;;16.50;100.00;97781.06;10383083;28;20237;-81
2023/07/26 09:36:51;;;;;;;3.70;3.40;;;15.80;99.90;;;16.65;90.60;97779.88;10373794;28;20230;-79
2023/07/26 09:42:05;;;;;;;3.08;2.80;;;16.10;99.90;;;16.72;87.93;97792.97;10391488;28;20215;-81
2023/07/26 09:47:10;;;;;;;3.58;2.85;;;16.10;99.90;;;16.88;87.47;97792.63;10384034;28;20242;-81
2023/07/26 09:52:15;;;;;;;2.40;2.20;;;16.30;99.90;;;17.01;85.96;97791.31;10371303;28;20234;-83
2023/07/26 09:57:21;;;;;;;2.55;2.35;;;16.50;99.90;;;17.14;85.37;97787.38;10366107;28;20322;-81
2023/07/26 10:02:29;;;;;;;2.22;2.13;;;16.60;99.90;;;17.14;81.06;97788.28;10368650;28;20237;-80
2023/07/26 10:07:34;;;;;;;2.00;1.90;;;16.50;99.90;;;17.19;79.75;97781.53;10370958;28;20324;-79
2023/07/26 10:12:39;;;;;;;1.98;1.88;;;16.70;99.90;;;17.52;78.79;97792.00;10358939;28;20645;-81
2023/07/26 10:17:48;;;;;;;1.90;1.80;;;17.10;99.90;;;17.41;78.90;97777.88;10357507;28;20214;-80
2023/07/26 10:22:53;;;;;;;1.90;1.80;;;16.90;99.90;;;17.60;79.10;97778.38;10372572;28;20228;-81
2023/07/26 10:27:57;;;;;;;2.00;1.90;;;17.00;99.90;;;17.31;78.17;97773.25;10361386;28;20222;-78
2023/07/26 10:33:02;;;;;;;2.00;1.90;;;16.80;99.90;;;17.44;78.69;97775.38;10350203;28;20675;-80
2023/07/26 10:38:05;;;;;;;1.83;1.73;;;16.80;99.90;;;17.36;79.17;97784.63;10356601;28;20313;-80
2023/07/26 10:43:40;;;;;;;2.00;1.90;;;16.70;99.90;;;17.46;80.77;97778.03;10364754;28;20218;-80
2023/07/26 10:48:44;;;;;;;2.10;1.90;;;16.70;99.90;;;17.42;80.40;97774.44;10356667;28;20254;-79
2023/07/26 10:53:48;;;;;;;2.05;1.95;;;16.60;99.90;;;17.33;81.34;97774.19;10360173;28;20674;-79
2023/07/26 10:58:54;;;;;;;1.80;1.70;;;16.50;99.90;;;17.42;83.62;97779.63;10364158;28;20249;-79
2023/07/26 11:03:59;;;;;;;2.00;1.90;;;16.60;99.90;;;18.12;79.20;97775.56;10360623;28;20230;-80
2023/07/26 11:09:04;;;;;;;1.90;1.77;;;17.40;99.90;;;18.42;74.53;97770.25;10361779;28;20857;-80
2023/07/26 11:14:17;;;;;;;1.90;1.80;;;17.70;99.90;;;18.45;73.45;97762.56;10363829;28;20234;-80
2023/07/26 11:19:22;;;;;;;2.25;1.90;;;17.60;99.90;;;18.63;75.00;97766.47;10379688;28;20242;-82
2023/07/26 11:24:28;;;;;;;1.70;1.60;;;17.80;99.90;;;19.02;70.79;97769.09;10383328;28;20601;-80
2023/07/26 11:29:32;;;;;;;1.95;1.80;;;18.10;99.90;;;18.90;71.89;97768.84;10376819;28;20211;-81
2023/07/26 11:34:37;;;;;;;1.83;1.73;;;18.10;99.90;;;19.34;70.69;97754.28;10377944;28;20226;-81
2023/07/26 11:39:40;;;;;;;2.03;1.90;;;18.80;99.90;;;19.52;69.08;97755.50;10375370;28;20223;-79
2023/07/26 11:44:44;;;;;;;2.30;2.10;;;19.00;99.90;;;19.53;66.14;97746.84;10378041;28;20289;-79
2023/07/26 11:49:51;;;;;;;2.70;2.50;;;19.10;99.90;;;19.77;65.27;97749.97;10377806;28;20249;-80
2023/07/26 11:54:57;;;;;;;2.20;2.10;;;19.20;99.90;;;19.75;62.34;97753.38;10362897;28;20225;-80
2023/07/26 12:00:04;;;;;;;2.75;2.55;;;19.00;99.90;;;19.58;68.64;97756.47;10367848;28;20785;-81
2023/07/26 12:05:25;;;;;;;2.40;2.28;;;18.90;99.90;;;19.72;62.49;97754.19;10368868;28;20233;-79
2023/07/26 12:10:32;;;;;;;2.10;1.95;;;18.70;99.90;;;19.61;65.15;97754.81;10368442;28;20226;-80
2023/07/26 12:15:51;;;;;;;2.50;2.30;;;18.80;99.90;;;19.91;61.86;97759.72;10367809;28;20686;-80
2023/07/26 12:21:01;;;;;;;3.47;2.50;;;19.00;99.90;;;19.84;62.82;97750.09;10379668;28;20720;-79
2023/07/26 12:26:08;;;;;;;2.75;2.53;;;18.90;99.90;;;20.19;60.71;97751.56;10377547;28;20699;-81
2023/07/26 12:31:19;;;;;;;2.22;2.03;;;19.30;99.90;;;20.13;66.41;97751.47;10373813;28;20707;-79
2023/07/26 12:36:24;;;;;;;2.33;2.22;;;19.20;99.90;;;19.75;67.93;97759.44;10379927;28;20586;-80
2023/07/26 12:41:27;;;;;;;2.50;2.30;;;18.80;99.90;;;19.31;68.38;97759.38;10367003;28;20702;-80
2023/07/26 12:46:31;;;;;;;3.00;2.33;;;18.20;99.90;;;19.28;69.67;97743.75;10380354;28;20230;-80
2023/07/26 12:51:56;;;;;;;2.83;2.20;;;18.40;99.90;;;19.58;67.44;97742.66;10378572;28;20242;-81
2023/07/26 12:56:59;;;;;;;2.83;2.50;;;18.90;99.90;;;19.56;67.38;97737.41;10382977;28;20258;-80
2023/07/26 13:02:04;;;;;;;2.72;2.53;;;18.80;99.90;;;19.58;66.02;97743.50;10372327;28;20223;-80
2023/07/26 13:07:11;;;;;;;2.47;2.28;;;18.70;99.90;;;19.58;65.03;97734.88;10375982;28;20234;-80
2023/07/26 13:12:25;;;;;;;2.47;2.28;;;18.80;99.90;;;19.71;64.99;97742.03;10382479;28;20233;-81
2023/07/26 13:17:29;;;;;;;2.47;2.28;;;18.90;99.90;;;19.67;66.07;97740.25;10352216;28;20222;-80
2023/07/26 13:22:40;;;;;;;2.40;2.20;;;18.90;99.90;;;19.75;67.13;97732.63;10368831;28;20679;-81
2023/07/26 13:27:44;;;;;;;3.00;2.80;;;19.00;99.90;;;20.14;63.50;97737.63;10355474;28;20232;-79
2023/07/26 13:32:48;;;;;;;2.63;2.42;;;19.50;99.90;;;20.28;59.48;97734.41;10361136;28;20226;-81
2023/07/26 13:37:53;;;;;;;4.35;2.70;;;19.70;99.90;;;20.24;60.43;97739.56;10377427;28;20230;-81
2023/07/26 13:42:56;;;;;;;3.55;2.70;;;19.50;99.90;;;19.92;60.31;97730.34;10369580;28;20274;-81
2023/07/26 13:48:00;;;;;;;2.97;2.67;;;19.30;99.90;;;19.50;62.61;97741.63;10374822;28;20261;-82
2023/07/26 13:53:04;;;;;;;3.13;2.80;;;18.90;99.90;;;19.19;64.42;97751.34;10378666;28;20232;-81
2023/07/26 13:58:08;;;;;;;2.90;2.63;;;18.50;99.90;;;18.97;63.97;97759.47;10378962;28;20949;-79
2023/07/26 14:03:11;;;;;;;5.45;3.42;;;18.30;99.90;;;18.87;59.25;97777.41;10381615;28;20258;-82
2023/07/26 14:08:15;;;;;;;3.58;3.28;;;18.30;99.90;;;19.11;58.06;97766.75;10374099;28;20310;-81
2023/07/26 14:13:19;;;;;;;3.38;3.08;;;18.50;99.90;;;19.23;59.63;97779.09;10373193;28;20258;-82
2023/07/26 14:18:22;;;;;;;4.18;3.03;;;18.70;99.90;;;19.68;56.12;97770.53;10372235;28;20238;-81
2023/07/26 14:23:28;;;;;;;2.92;2.70;;;19.00;99.90;;;20.02;55.93;97773.75;10373839;28;20240;-81
2023/07/26 14:28:32;;;;;;;3.45;2.83;;;19.30;99.90;;;20.34;55.58;97773.44;10364538;28;20245;-79
2023/07/26 14:33:35;;;;;;;3.55;3.25;;;19.80;99.90;;;20.60;55.06;97767.03;10357456;28;20249;-78
2023/07/26 14:38:40;;;;;;;4.78;4.20;;;20.10;99.90;;;20.81;56.13;97765.59;10359102;28;20226;-82
2023/07/26 14:43:44;;;;;;;4.15;3.53;;;20.20;99.90;;;20.95;55.92;97771.00;10372274;28;20218;-79
2023/07/26 14:48:47;;;;;;;3.60;3.30;;;20.20;99.90;;;20.74;54.55;97784.53;10373434;28;20321;-80
2023/07/26 14:53:52;;;;;;;3.70;3.40;;;19.90;99.90;;;20.60;53.85;97790.41;10374434;28;20296;-80
2023/07/26 14:58:55;;;;;;;3.45;3.15;;;19.70;99.90;;;20.65;54.93;97780.94;10378827;28;20723;-80
2023/07/26 15:04:01;;;;;;;3.88;3.47;;;19.70;99.90;;;20.94;53.25;97775.31;10379862;28;20253;-79
2023/07/26 15:09:06;;;;;;;3.67;3.00;;;19.90;99.90;;;21.02;53.37;97767.63;10379449;28;20337;-81
2023/07/26 15:14:10;;;;;;;3.85;3.45;;;20.20;99.00;;;21.11;51.87;97768.63;10380313;28;20230;-82
2023/07/26 15:19:14;;;;;;;3.45;3.15;;;20.30;98.10;;;21.00;50.67;97765.00;10387928;28;20231;-83
2023/07/26 15:24:18;;;;;;;4.70;3.00;;;20.30;96.50;;;20.80;51.27;97772.50;10391019;28;20218;-83
2023/07/26 15:29:22;;;;;;;4.03;3.72;;;20.00;96.90;;;20.77;51.72;97766.38;10385760;28;20749;-81
2023/07/26 15:34:25;;;;;;;4.15;3.15;;;19.90;97.20;;;20.90;49.40;97774.41;10383163;28;20231;-81
2023/07/26 15:39:30;;;;;;;3.53;3.22;;;20.10;95.50;;;20.79;51.58;97772.50;10380600;28;20231;-81
2023/07/26 15:44:33;;;;;;;4.68;3.78;;;19.90;97.10;;;20.67;51.28;97768.84;10382703;28;20230;-80
2023/07/26 15:49:39;;;;;;;6.88;6.28;;;19.80;96.60;;;20.55;51.43;97773.84;10362311;28;20229;-77
2023/07/26 15:54:49;;;;;;;3.47;3.17;;;19.80;96.90;;;20.53;51.04;97778.16;10373193;28;20222;-80
2023/07/26 15:59:52;;;;;;;3.97;3.30;;;19.60;96.60;;;20.31;52.94;97778.59;10370480;28;20615;-80
2023/07/26 16:04:55;;;;;;;3.45;3.17;;;19.50;97.50;;;20.39;52.61;97772.69;10377430;28;20305;-80
2023/07/26 16:10:04;;;;;;;3.30;3.00;;;19.60;97.40;;;20.34;51.01;97776.91;10371608;28;20247;-80
2023/07/26 16:15:09;;;;;;;3.95;3.55;;;19.50;96.60;;;20.36;50.65;97785.63;10370238;28;20230;-80
2023/07/26 16:20:17;;;;;;;5.07;3.45;;;19.60;96.00;;;19.68;52.81;97808.56;10361105;28;20234;-81
2023/07/26 16:25:22;;;;;;;3.45;3.15;;;18.80;97.50;;;19.30;57.66;97811.19;10385506;28;20223;-80
2023/07/26 16:30:25;;;;;;;4.72;3.60;;;18.40;99.90;;;18.83;62.37;97813.59;10381041;28;20700;-79
2023/07/26 16:35:29;;;;;;;3.20;2.78;;;18.10;99.90;;;18.71;62.12;97811.50;10382795;28;20234;-78
2023/07/26 16:40:33;;;;;;;3.13;2.70;;;17.80;99.90;;;18.60;63.50;97818.16;10369729;28;20234;-78
2023/07/26 16:45:37;;;;;;;3.05;2.78;;;17.80;99.90;;;18.38;64.62;97820.22;10368781;28;20604;-81
2023/07/26 16:50:40;;;;;;;3.13;2.83;;;17.50;99.90;;;18.25;65.84;97820.72;10367582;28;20234;-80
2023/07/26 16:55:44;;;;;;;3.70;3.00;;;17.30;99.90;;;18.35;64.86;97817.53;10353263;28;20240;-79
2023/07/26 17:00:48;;;;;;;3.33;2.78;;;17.50;99.90;;;18.29;64.00;97826.88;10367681;28;20249;-80
2023/07/26 17:05:51;;;;;;;3.53;3.00;;;17.50;99.90;;;18.21;65.34;97824.06;10375693;28;20732;-78
2023/07/26 17:10:55;;;;;;;3.03;2.60;;;17.50;99.90;;;18.14;66.16;97823.03;10382572;28;20879;-77
2023/07/26 17:15:59;;;;;;;3.08;2.80;;;17.40;99.90;;;18.12;65.71;97819.53;10368510;28;20230;-78
2023/07/26 17:21:03;;;;;;;4.13;3.60;;;17.30;99.90;;;18.13;66.46;97820.41;10372272;28;20230;-78
2023/07/26 17:26:09;;;;;;;3.05;2.85;;;17.30;99.90;;;18.11;66.96;97824.66;10371667;28;20237;-77
2023/07/26 17:31:12;;;;;;;3.50;3.20;;;17.30;99.90;;;18.27;65.96;97832.00;10388876;28;20226;-79
2023/07/26 17:36:16;;;;;;;4.10;3.80;;;17.50;99.90;;;18.61;64.91;97833.72;10383297;28;20704;-79
2023/07/26 17:41:21;;;;;;;3.65;3.10;;;17.90;99.90;;;18.68;65.24;97845.09;10382643;28;20233;-80
2023/07/26 17:46:24;;;;;;;2.97;2.72;;;18.00;99.90;;;18.84;63.56;97842.09;10385346;28;20249;-82
2023/07/26 17:51:27;;;;;;;3.67;3.10;;;18.00;99.90;;;18.76;62.46;97838.44;10362059;28;20322;-81
2023/07/26 17:56:32;;;;;;;4.18;3.08;;;17.80;99.90;;;18.59;63.13;97837.13;10360020;28;20246;-83
2023/07/26 18:01:37;;;;;;;3.00;2.70;;;17.70;99.90;;;18.45;62.63;97840.22;10369657;28;20229;-82
2023/07/26 18:06:40;;;;;;;3.30;3.00;;;17.60;99.90;;;18.19;65.43;97838.66;10376942;28;20226;-82
2023/07/26 18:11:45;;;;;;;3.17;2.88;;;17.40;99.90;;;17.94;67.20;97838.03;10372972;28;20276;-82
2023/07/26 18:16:49;;;;;;;3.00;2.80;;;17.10;99.90;;;17.70;68.12;97832.13;10356380;28;20231;-82
2023/07/26 18:21:54;;;;;;;3.83;3.38;;;17.00;99.90;;;17.58;69.74;97842.13;10366944;28;21132;-81
2023/07/26 18:26:58;;;;;;;3.38;3.08;;;16.80;99.90;;;17.43;70.85;97843.41;10366438;28;20233;-81
2023/07/26 18:32:02;;;;;;;2.83;2.63;;;16.60;99.90;;;17.31;71.68;97849.09;10356811;28;20231;-82
2023/07/26 18:37:06;;;;;;;3.33;3.03;;;16.50;99.90;;;17.19;74.07;97853.88;10363002;28;20222;-81
2023/07/26 18:42:13;;;;;;;3.53;3.22;;;16.40;99.90;;;17.03;74.76;97872.31;10363040;28;20223;-81
2023/07/26 18:47:16;;;;;;;3.47;3.08;;;16.30;99.90;;;16.95;76.53;97871.19;10360373;28;20253;-80
2023/07/26 18:52:22;;;;;;;3.35;2.67;;;16.10;99.90;;;16.87;77.57;97881.25;10366826;28;20238;-81
2023/07/26 18:57:26;;;;;;;3.72;3.30;;;16.00;99.90;;;16.71;79.51;97879.84;10358297;28;20330;-80
2023/07/26 19:02:29;;;;;;;3.30;3.03;;;15.90;99.90;;;16.63;80.20;97887.34;10362595;28;20236;-81
2023/07/26 19:07:33;;;;;;;4.10;3.63;;;15.90;99.90;;;16.59;82.12;97895.78;10363942;28;20226;-81
2023/07/26 19:12:38;;;;;;;3.75;3.40;;;15.80;99.90;;;16.55;81.27;97900.81;10357724;28;20218;-81
2023/07/26 19:17:41;;;;;;;3.47;3.17;;;15.70;99.90;;;16.46;82.70;97915.97;10358452;28;20606;-81
2023/07/26 19:22:44;;;;;;;4.00;3.70;;;15.60;99.90;;;16.42;83.79;97917.56;10358222;28;20227;-80
2023/07/26 19:27:49;;;;;;;4.38;3.40;;;15.60;99.90;;;16.37;84.20;97924.28;10364859;28;20229;-79
2023/07/26 19:32:53;;;;;;;3.72;3.42;;;15.50;99.90;;;16.25;84.94;97928.97;10364202;28;20742;-80
2023/07/26 19:37:56;;;;;;;3.70;3.40;;;15.50;99.90;;;16.27;84.57;97942.81;10380152;28;20230;-79
2023/07/26 19:43:01;;;;;;;4.05;3.63;;;15.40;99.90;;;16.15;84.91;97945.84;10380128;28;20246;-80
2023/07/26 19:48:05;;;;;;;5.32;4.00;;;15.30;99.90;;;15.87;89.29;97956.81;10387847;28;20230;-80
2023/07/26 19:53:09;;;;;;;4.38;3.92;;;15.10;99.90;;;15.80;88.83;97957.41;10389537;28;20264;-80
2023/07/26 19:58:14;;;;;;;4.63;4.15;;;15.10;99.90;;;15.87;89.29;97956.81;10376802;28;20273;-80
2023/07/26 20:03:18;;;;;;;4.53;4.22;;;15.20;99.90;;;15.96;89.21;97941.69;10379879;28;20230;-81
2023/07/26 20:08:23;;;;;;;4.32;4.00;;;15.20;99.90;;;15.79;89.32;97940.19;10379033;28;20976;-81
2023/07/26 20:13:28;;;;;;;3.80;3.50;;;15.10;99.90;;;15.77;89.15;97940.13;10370288;28;20226;-81
2023/07/26 20:18:34;;;;;;;4.10;3.65;;;15.00;99.90;;;15.79;89.55;97942.75;10387889;28;20222;-82
2023/07/26 20:23:38;;;;;;;5.15;3.80;;;15.00;99.90;;;15.76;89.92;97931.50;10389725;28;20254;-82
2023/07/26 20:28:43;;;;;;;4.15;3.85;;;15.00;99.90;;;15.73;89.56;97935.66;10374779;28;20784;-80
2023/07/26 20:33:46;;;;;;;4.15;3.85;;;15.00;99.90;;;15.63;89.21;97942.16;10383225;28;20246;-81
2023/07/26 20:38:50;;;;;;;4.20;3.65;;;14.80;99.90;;;15.51;88.67;97939.09;10361437;28;20227;-81
2023/07/26 20:43:54;;;;;;;3.92;3.50;;;14.70;99.90;;;15.40;88.49;97937.81;10369662;28;20222;-80
2023/07/26 20:48:57;;;;;;;3.70;3.50;;;14.60;99.90;;;15.36;88.88;97949.66;10367989;28;20218;-81
2023/07/26 20:54:00;;;;;;;4.47;4.07;;;14.60;99.90;;;15.21;88.74;97947.34;10368068;28;20233;-81